createdAt,value
2016-09-23T00:00:40.519Z,53.17
2016-09-23T00:01:40.501Z,53.43
2016-09-23T00:02:40.479Z,53.45
2016-09-23T00:03:40.467Z,53.65
2016-09-23T00:04:40.146Z,53.62
2016-09-23T00:05:40.435Z,53.53
2016-09-23T00:06:40.418Z,53.72
2016-09-23T00:07:40.401Z,53.33
2016-09-23T00:08:40.382Z,53.14
2016-09-23T00:09:40.369Z,53.62
2016-09-23T00:10:40.045Z,53.33
2016-09-23T00:11:40.335Z,53.65
2016-09-23T00:12:40.317Z,53.53
2016-09-23T00:13:40.300Z,53.45
2016-09-23T00:14:40.287Z,53.43
2016-09-23T00:15:40.265Z,53.55
2016-09-23T00:16:40.254Z,53.55
2016-09-23T00:17:39.934Z,53.53
2016-09-23T00:18:40.231Z,53.43
2016-09-23T00:19:40.200Z,53.36
2016-09-23T00:20:40.180Z,53.14
2016-09-23T00:21:40.170Z,53.65
2016-09-23T00:22:40.150Z,53.43
2016-09-23T00:23:40.135Z,53.43
2016-09-23T00:24:40.116Z,53.17
2016-09-23T00:25:40.101Z,53.33
2016-09-23T00:26:40.086Z,53.14
2016-09-23T00:27:40.070Z,53.62
2016-09-23T00:28:39.756Z,53.05
2016-09-23T00:29:40.036Z,53.43
2016-09-23T00:30:40.021Z,53.62
2016-09-23T00:31:40.007Z,53.62
2016-09-23T00:32:39.998Z,53.53
2016-09-23T00:33:39.965Z,53.72
2016-09-23T00:34:39.956Z,53.72
2016-09-23T00:35:39.933Z,53.62
2016-09-23T00:36:39.917Z,53.91
2016-09-23T00:37:39.608Z,53.91
2016-09-23T00:38:39.884Z,53.91
2016-09-23T00:39:39.871Z,53.62
2016-09-23T00:40:39.853Z,53.72
2016-09-23T00:41:39.838Z,53.62
2016-09-23T00:42:39.516Z,53.36
2016-09-23T00:43:39.804Z,53.62
2016-09-23T00:44:39.783Z,53.17
2016-09-23T00:45:39.769Z,53.62
2016-09-23T00:46:39.751Z,53.53
2016-09-23T00:47:39.738Z,53.72
2016-09-23T00:48:39.724Z,53.72
2016-09-23T00:49:39.706Z,53.62
2016-09-23T00:50:39.388Z,53.23
2016-09-23T00:51:39.373Z,52.78
2016-09-23T00:52:39.351Z,53.17
2016-09-23T00:53:39.634Z,52.49
2016-09-23T00:54:39.625Z,52.69
2016-09-23T00:55:39.608Z,52.59
2016-09-23T00:56:39.590Z,52.69
2016-09-23T00:57:39.273Z,52.87
2016-09-23T00:58:39.553Z,52.59
2016-09-23T00:59:39.536Z,52.78
2016-09-23T01:00:39.518Z,52.87
2016-09-23T01:01:39.506Z,52.87
2016-09-23T01:02:39.489Z,52.87
2016-09-23T01:03:39.469Z,52.49
2016-09-23T01:04:39.448Z,52.11
2016-09-23T01:05:39.438Z,52.04
2016-09-23T01:06:39.429Z,51.84
2016-09-23T01:07:39.408Z,51.75
2016-09-23T01:08:39.406Z,51.84
2016-09-23T01:09:39.373Z,51.94
2016-09-23T01:10:39.355Z,51.84
2016-09-23T01:11:39.344Z,51.84
2016-09-23T01:12:39.329Z,51.94
2016-09-23T01:13:39.309Z,52.23
2016-09-23T01:14:39.289Z,51.94
2016-09-23T01:15:39.279Z,51.84
2016-09-23T01:16:39.259Z,52.13
2016-09-23T01:17:39.236Z,51.84
2016-09-23T01:18:38.923Z,51.84
2016-09-23T01:19:39.204Z,52.13
2016-09-23T01:20:39.189Z,51.75
2016-09-23T01:21:39.178Z,52.13
2016-09-23T01:22:39.154Z,52.13
2016-09-23T01:23:38.841Z,51.84
2016-09-23T01:24:39.124Z,51.94
2016-09-23T01:25:39.107Z,51.75
2016-09-23T01:26:39.089Z,52.04
2016-09-23T01:27:39.073Z,51.94
2016-09-23T01:28:38.757Z,52.04
2016-09-23T01:29:39.042Z,52.04
2016-09-23T01:30:39.023Z,51.84
2016-09-23T01:31:39.008Z,52.04
2016-09-23T01:32:38.992Z,51.75
2016-09-23T01:33:38.974Z,51.84
2016-09-23T01:34:38.961Z,51.94
2016-09-23T01:35:38.942Z,51.84
2016-09-23T01:36:38.930Z,51.94
2016-09-23T01:37:38.911Z,51.46
2016-09-23T01:38:38.891Z,51.94
2016-09-23T01:39:38.883Z,51.97
2016-09-23T01:40:38.861Z,52.04
2016-09-23T01:41:38.848Z,51.56
2016-09-23T01:42:38.522Z,51.97
2016-09-23T01:43:38.821Z,51.94
2016-09-23T01:44:38.800Z,51.94
2016-09-23T01:45:38.777Z,51.65
2016-09-23T01:46:38.762Z,51.94
2016-09-23T01:47:38.744Z,51.65
2016-09-23T01:48:38.727Z,51.68
2016-09-23T01:49:38.711Z,51.77
2016-09-23T01:50:38.699Z,51.97
2016-09-23T01:51:38.694Z,51.97
2016-09-23T01:52:38.664Z,51.75
2016-09-23T01:53:38.343Z,51.94
2016-09-23T01:54:38.628Z,51.84
2016-09-23T01:55:38.623Z,51.97
2016-09-23T01:56:38.593Z,51.84
2016-09-23T01:57:38.580Z,51.87
2016-09-23T01:58:38.562Z,51.97
2016-09-23T01:59:38.550Z,51.94
2016-09-23T02:00:38.532Z,51.87
2016-09-23T02:01:38.520Z,51.87
2016-09-23T02:02:38.498Z,51.97
2016-09-23T02:03:38.480Z,52.04
2016-09-23T02:04:38.472Z,51.68
2016-09-23T02:05:38.451Z,52.06
2016-09-23T02:06:38.433Z,51.84
2016-09-23T02:07:38.416Z,51.97
2016-09-23T02:08:38.398Z,51.87
2016-09-23T02:09:38.394Z,51.58
2016-09-23T02:10:38.367Z,51.56
2016-09-23T02:11:38.348Z,51.58
2016-09-23T02:12:38.331Z,51.77
2016-09-23T02:13:38.323Z,52.06
2016-09-23T02:14:38.299Z,51.77
2016-09-23T02:15:38.284Z,51.97
2016-09-23T02:16:38.275Z,51.97
2016-09-23T02:17:38.250Z,52.45
2016-09-23T02:18:38.237Z,52.45
2016-09-23T02:19:38.218Z,52.45
2016-09-23T02:20:38.204Z,52.42
2016-09-23T02:21:38.186Z,52.25
2016-09-23T02:22:38.171Z,52.25
2016-09-23T02:23:38.154Z,52.55
2016-09-23T02:24:38.137Z,52.64
2016-09-23T02:25:38.126Z,52.45
2016-09-23T02:26:37.803Z,52.45
2016-09-23T02:27:38.092Z,52.45
2016-09-23T02:28:38.070Z,52.55
2016-09-23T02:29:38.053Z,52.55
2016-09-23T02:30:38.038Z,52.45
2016-09-23T02:31:38.016Z,52.55
2016-09-23T02:32:38.005Z,52.73
2016-09-23T02:33:37.693Z,52.93
2016-09-23T02:34:37.976Z,52.35
2016-09-23T02:35:37.959Z,52.45
2016-09-23T02:36:37.950Z,52.35
2016-09-23T02:37:37.922Z,52.25
2016-09-23T02:38:37.905Z,52.35
2016-09-23T02:39:37.890Z,52.73
2016-09-23T02:40:37.879Z,52.55
2016-09-23T02:41:37.866Z,52.35
2016-09-23T02:42:37.539Z,52.45
2016-09-23T02:43:37.825Z,52.52
2016-09-23T02:44:37.813Z,52.55
2016-09-23T02:45:37.797Z,53.13
2016-09-23T02:46:37.473Z,52.55
2016-09-23T02:47:37.761Z,52.55
2016-09-23T02:48:37.751Z,52.83
2016-09-23T02:49:37.424Z,52.64
2016-09-23T02:50:37.707Z,52.64
2016-09-23T02:51:37.693Z,52.35
2016-09-23T02:52:37.379Z,53.13
2016-09-23T02:53:37.663Z,53.13
2016-09-23T02:54:37.646Z,52.83
2016-09-23T02:55:37.634Z,52.73
2016-09-23T02:56:37.613Z,52.83
2016-09-23T02:57:37.598Z,52.93
2016-09-23T02:58:37.581Z,52.93
2016-09-23T02:59:37.562Z,53.03
2016-09-23T03:00:37.553Z,52.83
2016-09-23T03:01:37.530Z,53.03
2016-09-23T03:02:37.511Z,53.03
2016-09-23T03:03:37.501Z,53.03
2016-09-23T03:04:37.479Z,52.73
2016-09-23T03:05:37.469Z,52.93
2016-09-23T03:06:37.449Z,52.64
2016-09-23T03:07:37.433Z,52.64
2016-09-23T03:08:37.425Z,52.73
2016-09-23T03:09:37.401Z,52.83
2016-09-23T03:10:37.385Z,53.22
2016-09-23T03:11:37.363Z,53.03
2016-09-23T03:12:37.350Z,52.93
2016-09-23T03:13:37.040Z,53.22
2016-09-23T03:14:37.323Z,53.13
2016-09-23T03:15:37.304Z,53.13
2016-09-23T03:16:37.291Z,53.03
2016-09-23T03:17:36.968Z,53.13
2016-09-23T03:18:37.256Z,53.03
2016-09-23T03:19:37.245Z,53.22
2016-09-23T03:20:37.224Z,53.13
2016-09-23T03:21:37.204Z,53.22
2016-09-23T03:22:37.188Z,53.13
2016-09-23T03:23:37.171Z,53.03
2016-09-23T03:24:36.855Z,53.31
2016-09-23T03:25:37.143Z,53.13
2016-09-23T03:26:37.123Z,53.03
2016-09-23T03:27:36.807Z,53.22
2016-09-23T03:28:37.094Z,53.03
2016-09-23T03:29:37.074Z,52.83
2016-09-23T03:30:37.063Z,53.03
2016-09-23T03:31:37.046Z,53.22
2016-09-23T03:32:37.027Z,53.13
2016-09-23T03:33:37.008Z,52.93
2016-09-23T03:34:36.993Z,52.83
2016-09-23T03:35:36.977Z,53.13
2016-09-23T03:36:36.963Z,53.13
2016-09-23T03:37:36.942Z,52.83
2016-09-23T03:38:36.627Z,52.93
2016-09-23T03:39:36.918Z,53.13
2016-09-23T03:40:36.896Z,53.03
2016-09-23T03:41:36.579Z,53.13
2016-09-23T03:42:36.863Z,53.13
2016-09-23T03:43:36.848Z,52.93
2016-09-23T03:44:36.828Z,53.13
2016-09-23T03:45:36.816Z,53.13
2016-09-23T03:46:36.797Z,53.13
2016-09-23T03:47:36.783Z,52.93
2016-09-23T03:48:36.464Z,52.93
2016-09-23T03:49:36.750Z,52.93
2016-09-23T03:50:36.430Z,53.13
2016-09-23T03:51:36.717Z,53.22
2016-09-23T03:52:36.708Z,53.13
2016-09-23T03:53:36.680Z,52.73
2016-09-23T03:54:36.367Z,53.13
2016-09-23T03:55:36.648Z,52.93
2016-09-23T03:56:36.633Z,52.93
2016-09-23T03:57:36.618Z,52.93
2016-09-23T03:58:36.604Z,52.93
2016-09-23T03:59:36.590Z,53.03
2016-09-23T04:00:36.572Z,52.93
2016-09-23T04:01:36.552Z,53.31
2016-09-23T04:02:36.542Z,52.93
2016-09-23T04:03:36.518Z,52.93
2016-09-23T04:04:36.508Z,53.13
2016-09-23T04:05:36.489Z,52.83
2016-09-23T04:06:36.471Z,53.03
2016-09-23T04:07:36.160Z,52.93
2016-09-23T04:08:36.443Z,52.93
2016-09-23T04:09:36.422Z,53.03
2016-09-23T04:10:36.406Z,52.93
2016-09-23T04:11:36.393Z,52.93
2016-09-23T04:12:36.376Z,53.13
2016-09-23T04:13:36.361Z,53.7
2016-09-23T04:14:36.338Z,53.61
2016-09-23T04:15:36.322Z,52.93
2016-09-23T04:16:36.308Z,53.13
2016-09-23T04:17:36.296Z,53.13
2016-09-23T04:18:36.276Z,53.03
2016-09-23T04:19:36.262Z,52.64
2016-09-23T04:20:36.246Z,53.13
2016-09-23T04:21:36.225Z,52.93
2016-09-23T04:22:36.208Z,52.93
2016-09-23T04:23:36.199Z,52.83
2016-09-23T04:24:36.180Z,52.93
2016-09-23T04:25:36.161Z,52.93
2016-09-23T04:26:36.149Z,53.13
2016-09-23T04:27:36.134Z,53.13
2016-09-23T04:28:36.120Z,52.73
2016-09-23T04:29:36.112Z,52.93
2016-09-23T04:30:36.078Z,53.31
2016-09-23T04:31:35.765Z,53.13
2016-09-23T04:32:36.052Z,53.41
2016-09-23T04:33:36.032Z,53.13
2016-09-23T04:34:36.021Z,53.13
2016-09-23T04:35:36.005Z,53.22
2016-09-23T04:36:35.982Z,52.93
2016-09-23T04:37:35.971Z,53.31
2016-09-23T04:38:35.649Z,53.61
2016-09-23T04:39:35.939Z,53.61
2016-09-23T04:40:35.913Z,53.8
2016-09-23T04:41:35.903Z,53.51
2016-09-23T04:42:35.889Z,53.61
2016-09-23T04:43:35.570Z,53.51
2016-09-23T04:44:35.853Z,53.7
2016-09-23T04:45:35.833Z,53.7
2016-09-23T04:46:35.833Z,53.41
2016-09-23T04:47:35.501Z,53.41
2016-09-23T04:48:35.784Z,53.51
2016-09-23T04:49:35.769Z,53.61
2016-09-23T04:50:35.760Z,53.22
2016-09-23T04:51:35.740Z,53.51
2016-09-23T04:52:35.940Z,53.7
2016-09-23T04:53:35.706Z,53.41
2016-09-23T04:54:35.690Z,53.41
2016-09-23T04:55:35.370Z,53.51
2016-09-23T04:56:35.656Z,53.51
2016-09-23T04:57:35.336Z,53.7
2016-09-23T04:58:35.624Z,53.31
2016-09-23T04:59:35.616Z,53.41
2016-09-23T05:00:35.591Z,53.31
2016-09-23T05:01:35.580Z,53.41
2016-09-23T05:02:35.256Z,53.41
2016-09-23T05:03:35.542Z,53.51
2016-09-23T05:04:35.524Z,53.41
2016-09-23T05:05:35.512Z,53.22
2016-09-23T05:06:35.493Z,53.61
2016-09-23T05:07:35.480Z,53.51
2016-09-23T05:08:35.460Z,53.22
2016-09-23T05:09:35.446Z,53.51
2016-09-23T05:10:35.431Z,53.41
2016-09-23T05:11:35.415Z,53.31
2016-09-23T05:12:35.394Z,53.41
2016-09-23T05:13:35.078Z,53.41
2016-09-23T05:14:35.057Z,53.31
2016-09-23T05:15:35.350Z,53.61
2016-09-23T05:16:35.330Z,53.51
2016-09-23T05:17:35.314Z,53.41
2016-09-23T05:18:35.303Z,53.7
2016-09-23T05:19:35.289Z,53.22
2016-09-23T05:20:35.269Z,53.31
2016-09-23T05:21:35.248Z,53.41
2016-09-23T05:22:35.240Z,53.7
2016-09-23T05:23:35.219Z,53.51
2016-09-23T05:24:35.199Z,53.61
2016-09-23T05:25:35.182Z,53.7
2016-09-23T05:26:35.166Z,53.7
2016-09-23T05:27:35.153Z,53.13
2016-09-23T05:28:35.141Z,52.93
2016-09-23T05:29:35.124Z,53.31
2016-09-23T05:30:35.103Z,52.93
2016-09-23T05:31:35.087Z,52.93
2016-09-23T05:32:35.069Z,53.31
2016-09-23T05:33:35.056Z,53.31
2016-09-23T05:34:35.043Z,53.31
2016-09-23T05:35:35.021Z,53.31
2016-09-23T05:36:34.999Z,53.31
2016-09-23T05:37:34.988Z,53.41
2016-09-23T05:38:34.973Z,53.41
2016-09-23T05:39:34.962Z,53.41
2016-09-23T05:40:34.945Z,53.61
2016-09-23T05:41:34.919Z,53.7
2016-09-23T05:42:34.917Z,53.7
2016-09-23T05:43:34.893Z,53.61
2016-09-23T05:44:34.582Z,53.7
2016-09-23T05:45:34.857Z,53.31
2016-09-23T05:46:34.844Z,53.41
2016-09-23T05:47:34.844Z,53.61
2016-09-23T05:48:34.510Z,53.61
2016-09-23T05:49:34.796Z,53.31
2016-09-23T05:50:34.779Z,53.8
2016-09-23T05:51:34.760Z,53.41
2016-09-23T05:52:34.755Z,53.61
2016-09-23T05:53:34.439Z,53.61
2016-09-23T05:54:34.713Z,53.7
2016-09-23T05:55:34.695Z,53.7
2016-09-23T05:56:34.384Z,53.61
2016-09-23T05:57:34.665Z,53.7
2016-09-23T05:58:34.347Z,53.51
2016-09-23T05:59:34.629Z,53.7
2016-09-23T06:00:34.311Z,53.13
2016-09-23T06:01:34.602Z,53.13
2016-09-23T06:02:34.586Z,53.31
2016-09-23T06:03:34.270Z,53.13
2016-09-23T06:04:34.550Z,53.13
2016-09-23T06:05:34.533Z,53.7
2016-09-23T06:06:34.522Z,53.7
2016-09-23T06:07:34.511Z,53.31
2016-09-23T06:08:34.484Z,53.31
2016-09-23T06:09:34.466Z,53.31
2016-09-23T06:10:34.459Z,53.13
2016-09-23T06:11:34.136Z,53.13
2016-09-23T06:12:34.423Z,53.22
2016-09-23T06:13:34.408Z,53.61
2016-09-23T06:14:34.386Z,53.13
2016-09-23T06:15:34.371Z,53.22
2016-09-23T06:16:34.052Z,53.7
2016-09-23T06:17:34.357Z,53.61
2016-09-23T06:18:34.325Z,53.22
2016-09-23T06:19:34.303Z,53.7
2016-09-23T06:20:34.288Z,53.13
2016-09-23T06:21:34.280Z,53.13
2016-09-23T06:22:34.257Z,53.22
2016-09-23T06:23:33.939Z,53.03
2016-09-23T06:24:34.228Z,53.13
2016-09-23T06:25:34.209Z,53.31
2016-09-23T06:26:34.190Z,53.7
2016-09-23T06:27:34.175Z,53.7
2016-09-23T06:28:34.153Z,53.7
2016-09-23T06:29:34.145Z,53.61
2016-09-23T06:30:34.134Z,53.7
2016-09-23T06:31:33.812Z,53.22
2016-09-23T06:32:33.797Z,53.7
2016-09-23T06:33:34.078Z,53.61
2016-09-23T06:34:34.077Z,53.61
2016-09-23T06:35:34.049Z,53.61
2016-09-23T06:36:34.046Z,53.61
2016-09-23T06:37:34.019Z,53.7
2016-09-23T06:38:33.996Z,53.41
2016-09-23T06:39:33.977Z,53.7
2016-09-23T06:40:33.961Z,53.51
2016-09-23T06:41:33.946Z,53.67
2016-09-23T06:42:33.929Z,53.51
2016-09-23T06:43:33.934Z,53.51
2016-09-23T06:44:33.909Z,53.22
2016-09-23T06:45:33.879Z,53.31
2016-09-23T06:46:33.866Z,53.7
2016-09-23T06:47:33.849Z,53.51
2016-09-23T06:48:33.840Z,53.22
2016-09-23T06:49:33.823Z,53.31
2016-09-23T06:50:33.503Z,53.31
2016-09-23T06:51:33.486Z,53.7
2016-09-23T06:52:33.466Z,53.7
2016-09-23T06:53:33.758Z,53.51
2016-09-23T06:54:33.433Z,53.41
2016-09-23T06:55:33.723Z,53.41
2016-09-23T06:56:33.709Z,53.51
2016-09-23T06:57:33.390Z,53.51
2016-09-23T06:58:33.673Z,53.61
2016-09-23T06:59:33.351Z,53.7
2016-09-23T07:00:33.640Z,53.7
2016-09-23T07:01:33.622Z,53.8
2016-09-23T07:02:33.605Z,53.7
2016-09-23T07:03:33.288Z,53.61
2016-09-23T07:04:33.570Z,53.61
2016-09-23T07:05:33.556Z,53.89
2016-09-23T07:06:33.540Z,53.8
2016-09-23T07:07:33.533Z,53.89
2016-09-23T07:08:33.509Z,53.58
2016-09-23T07:09:33.188Z,54.35
2016-09-23T07:10:33.169Z,54.03
2016-09-23T07:11:33.458Z,54.52
2016-09-23T07:12:33.451Z,54.78
2016-09-23T07:13:33.425Z,54.97
2016-09-23T07:14:33.109Z,55
2016-09-23T07:15:33.392Z,54.32
2016-09-23T07:16:33.384Z,54.78
2016-09-23T07:17:33.363Z,54.87
2016-09-23T07:18:33.344Z,55.45
2016-09-23T07:19:33.028Z,55.16
2016-09-23T07:20:33.011Z,54.97
2016-09-23T07:21:33.296Z,55.26
2016-09-23T07:22:33.283Z,55.26
2016-09-23T07:23:33.268Z,54.97
2016-09-23T07:24:33.244Z,54.87
2016-09-23T07:25:32.929Z,55.65
2016-09-23T07:26:33.212Z,54.87
2016-09-23T07:27:33.195Z,55.26
2016-09-23T07:28:32.884Z,55.16
2016-09-23T07:29:32.864Z,55.9
2016-09-23T07:30:33.147Z,55.65
2016-09-23T07:31:33.132Z,55.26
2016-09-23T07:32:32.816Z,55.35
2016-09-23T07:33:33.097Z,55.65
2016-09-23T07:34:33.079Z,55.83
2016-09-23T07:35:33.066Z,56.03
2016-09-23T07:36:32.748Z,55.55
2016-09-23T07:37:32.728Z,55.16
2016-09-23T07:38:33.018Z,55.65
2016-09-23T07:39:32.998Z,55.93
2016-09-23T07:40:32.982Z,55.65
2016-09-23T07:41:32.967Z,55.83
2016-09-23T07:42:32.951Z,55.74
2016-09-23T07:43:32.945Z,55.55
2016-09-23T07:44:32.913Z,55.45
2016-09-23T07:45:32.603Z,55.93
2016-09-23T07:46:32.881Z,55.26
2016-09-23T07:47:32.865Z,54.8
2016-09-23T07:48:32.851Z,54.61
2016-09-23T07:49:32.831Z,54.71
2016-09-23T07:50:32.818Z,54.13
2016-09-23T07:51:32.802Z,54.44
2016-09-23T07:52:32.479Z,54.44
2016-09-23T07:53:32.776Z,54.16
2016-09-23T07:54:32.752Z,53.96
2016-09-23T07:55:32.733Z,53.48
2016-09-23T07:56:32.415Z,53.96
2016-09-23T07:57:32.699Z,53.87
2016-09-23T07:58:32.680Z,53.77
2016-09-23T07:59:32.383Z,53.48
2016-09-23T08:00:32.654Z,53.58
2016-09-23T08:01:32.629Z,53.39
2016-09-23T08:02:32.618Z,53.48
2016-09-23T08:03:32.311Z,53.48
2016-09-23T08:04:32.589Z,53.48
2016-09-23T08:05:32.574Z,53.58
2016-09-23T08:06:32.253Z,53.29
2016-09-23T08:07:32.537Z,53.29
2016-09-23T08:08:32.514Z,53.48
2016-09-23T08:09:32.540Z,53.96
2016-09-23T08:10:32.190Z,54.16
2016-09-23T08:11:32.472Z,54.44
2016-09-23T08:12:32.468Z,54.25
2016-09-23T08:13:32.134Z,54.44
2016-09-23T08:14:32.418Z,54.06
2016-09-23T08:15:32.424Z,54.25
2016-09-23T08:16:32.391Z,54.47
2016-09-23T08:17:32.329Z,54.25
2016-09-23T08:18:32.352Z,54.44
2016-09-23T08:19:32.340Z,54.57
2016-09-23T08:20:32.029Z,54.66
2016-09-23T08:21:32.003Z,54.57
2016-09-23T08:22:31.987Z,54.66
2016-09-23T08:23:31.965Z,54.86
2016-09-23T08:24:32.264Z,55.05
2016-09-23T08:25:31.948Z,54.66
2016-09-23T08:26:32.223Z,55.05
2016-09-23T08:27:32.207Z,54.86
2016-09-23T08:28:31.891Z,54.96
2016-09-23T08:29:31.871Z,54.86
2016-09-23T08:30:32.154Z,54.57
2016-09-23T08:31:32.161Z,54.76
2016-09-23T08:32:32.123Z,54.47
2016-09-23T08:33:31.822Z,54.96
2016-09-23T08:34:32.101Z,54.76
2016-09-23T08:35:32.079Z,54.28
2016-09-23T08:36:32.052Z,54.09
2016-09-23T08:37:32.043Z,54.28
2016-09-23T08:38:32.018Z,54.28
2016-09-23T08:39:32.005Z,54.47
2016-09-23T08:40:31.987Z,54.28
2016-09-23T08:41:31.674Z,54.38
2016-09-23T08:42:31.955Z,54.47
2016-09-23T08:43:31.938Z,54.57
2016-09-23T08:44:31.922Z,54.57
2016-09-23T08:45:31.923Z,54.47
2016-09-23T08:46:31.887Z,54.57
2016-09-23T08:47:31.570Z,54.47
2016-09-23T08:48:31.860Z,54.47
2016-09-23T08:49:31.855Z,54.47
2016-09-23T08:50:31.825Z,54.38
2016-09-23T08:51:31.806Z,54.38
2016-09-23T08:52:31.787Z,54.57
2016-09-23T08:53:31.772Z,54.57
2016-09-23T08:54:31.754Z,54.66
2016-09-23T08:55:31.745Z,54.57
2016-09-23T08:56:31.729Z,54.66
2016-09-23T08:57:31.405Z,54.57
2016-09-23T08:58:31.707Z,54.57
2016-09-23T08:59:31.378Z,54.57
2016-09-23T09:00:31.663Z,54.38
2016-09-23T09:01:31.645Z,54.66
2016-09-23T09:02:31.334Z,53.89
2016-09-23T09:03:31.608Z,54.09
2016-09-23T09:04:31.595Z,53.61
2016-09-23T09:05:31.278Z,53.89
2016-09-23T09:06:31.566Z,53.89
2016-09-23T09:07:31.552Z,53.8
2016-09-23T09:08:31.529Z,53.8
2016-09-23T09:09:31.218Z,53.51
2016-09-23T09:10:31.501Z,53.8
2016-09-23T09:11:31.177Z,53.89
2016-09-23T09:12:31.464Z,53.51
2016-09-23T09:13:31.449Z,53.8
2016-09-23T09:14:31.132Z,53.61
2016-09-23T09:15:31.419Z,53.61
2016-09-23T09:16:31.415Z,53.61
2016-09-23T09:17:31.080Z,53.7
2016-09-23T09:18:31.377Z,53.8
2016-09-23T09:19:31.054Z,53.89
2016-09-23T09:20:31.033Z,53.7
2016-09-23T09:21:31.322Z,53.83
2016-09-23T09:22:31.008Z,53.51
2016-09-23T09:23:31.285Z,53.41
2016-09-23T09:24:31.272Z,53.51
2016-09-23T09:25:31.258Z,53.51
2016-09-23T09:26:31.245Z,53.51
2016-09-23T09:27:30.922Z,54.66
2016-09-23T09:28:31.203Z,54.96
2016-09-23T09:29:30.994Z,55.34
2016-09-23T09:30:31.168Z,55.92
2016-09-23T09:31:31.160Z,55.89
2016-09-23T09:32:31.138Z,56.37
2016-09-23T09:33:31.124Z,56.27
2016-09-23T09:34:31.104Z,56.66
2016-09-23T09:35:31.092Z,56.47
2016-09-23T09:36:31.075Z,56.66
2016-09-23T09:37:31.059Z,56.66
2016-09-23T09:38:31.045Z,56.95
2016-09-23T09:39:31.031Z,55.79
2016-09-23T09:40:30.705Z,55.63
2016-09-23T09:41:31.005Z,55.05
2016-09-23T09:42:30.983Z,55.44
2016-09-23T09:43:30.671Z,55.05
2016-09-23T09:44:30.944Z,54.76
2016-09-23T09:45:30.929Z,55.05
2016-09-23T09:46:30.913Z,54.86
2016-09-23T09:47:30.898Z,55.15
2016-09-23T09:48:30.878Z,54.69
2016-09-23T09:49:30.864Z,54.47
2016-09-23T09:50:30.846Z,54.86
2016-09-23T09:51:30.832Z,54.66
2016-09-23T09:52:30.810Z,54.66
2016-09-23T09:53:30.799Z,54.66
2016-09-23T09:54:30.782Z,54.86
2016-09-23T09:55:30.763Z,54.88
2016-09-23T09:56:30.757Z,54.69
2016-09-23T09:57:30.430Z,54.6
2016-09-23T09:58:30.725Z,54.4
2016-09-23T09:59:30.400Z,54.4
2016-09-23T10:00:30.381Z,54.4
2016-09-23T10:01:30.677Z,54.6
2016-09-23T10:02:30.653Z,54.69
2016-09-23T10:03:30.333Z,54.5
2016-09-23T10:04:30.617Z,54.88
2016-09-23T10:05:30.861Z,54.31
2016-09-23T10:06:30.592Z,54.6
2016-09-23T10:07:30.589Z,54.5
2016-09-23T10:08:30.554Z,54.21
2016-09-23T10:09:30.538Z,54.5
2016-09-23T10:10:30.531Z,54.21
2016-09-23T10:11:30.204Z,54.21
2016-09-23T10:12:30.494Z,54.5
2016-09-23T10:13:30.169Z,54.5
2016-09-23T10:14:30.460Z,54.5
2016-09-23T10:15:30.441Z,54.5
2016-09-23T10:16:30.432Z,54.6
2016-09-23T10:17:30.411Z,54.69
2016-09-23T10:18:30.387Z,54.6
2016-09-23T10:19:30.370Z,54.31
2016-09-23T10:20:30.361Z,54.4
2016-09-23T10:21:30.038Z,54.4
2016-09-23T10:22:30.027Z,54.31
2016-09-23T10:23:30.309Z,54.5
2016-09-23T10:24:30.296Z,54.5
2016-09-23T10:25:30.281Z,54.31
2016-09-23T10:26:30.264Z,54.6
2016-09-23T10:27:30.250Z,54.4
2016-09-23T10:28:30.229Z,54.6
2016-09-23T10:29:30.218Z,54.5
2016-09-23T10:30:30.201Z,54.5
2016-09-23T10:31:29.881Z,54.6
2016-09-23T10:32:30.165Z,54.5
2016-09-23T10:33:29.844Z,54.31
2016-09-23T10:34:30.146Z,54.6
2016-09-23T10:35:30.116Z,54.6
2016-09-23T10:36:30.100Z,54.69
2016-09-23T10:37:30.084Z,54.5
2016-09-23T10:38:30.068Z,54.5
2016-09-23T10:39:30.051Z,54.02
2016-09-23T10:40:30.037Z,54.4
2016-09-23T10:41:29.718Z,54.4
2016-09-23T10:42:29.703Z,54.5
2016-09-23T10:43:29.992Z,54.6
2016-09-23T10:44:29.972Z,54.5
2016-09-23T10:45:29.955Z,54.21
2016-09-23T10:46:29.936Z,54.5
2016-09-23T10:47:29.622Z,54.5
2016-09-23T10:48:29.909Z,54.21
2016-09-23T10:49:29.898Z,54.21
2016-09-23T10:50:29.877Z,54.11
2016-09-23T10:51:29.863Z,54.21
2016-09-23T10:52:29.843Z,54.4
2016-09-23T10:53:29.824Z,54.11
2016-09-23T10:54:29.818Z,54.5
2016-09-23T10:55:29.494Z,54.11
2016-09-23T10:56:29.479Z,54.5
2016-09-23T10:57:29.762Z,54.02
2016-09-23T10:58:29.754Z,54.21
2016-09-23T10:59:29.732Z,54.5
2016-09-23T11:00:29.712Z,54.5
2016-09-23T11:01:29.702Z,54.69
2016-09-23T11:02:29.690Z,54.31
2016-09-23T11:03:29.362Z,54.53
2016-09-23T11:04:29.656Z,54.21
2016-09-23T11:05:29.633Z,54.24
2016-09-23T11:06:29.316Z,54.21
2016-09-23T11:07:29.309Z,54.21
2016-09-23T11:08:29.592Z,54.5
2016-09-23T11:09:29.565Z,54.21
2016-09-23T11:10:29.554Z,54.53
2016-09-23T11:11:29.543Z,54.21
2016-09-23T11:12:29.220Z,54.21
2016-09-23T11:13:29.207Z,54.21
2016-09-23T11:14:29.501Z,54.53
2016-09-23T11:15:29.474Z,54.31
2016-09-23T11:16:29.451Z,54.5
2016-09-23T11:17:29.450Z,54.43
2016-09-23T11:18:29.423Z,54.4
2016-09-23T11:19:29.116Z,54.69
2016-09-23T11:20:29.396Z,54.43
2016-09-23T11:21:29.388Z,54.53
2016-09-23T11:22:29.364Z,54.14
2016-09-23T11:23:29.353Z,53.92
2016-09-23T11:24:29.329Z,54.14
2016-09-23T11:25:29.305Z,54.14
2016-09-23T11:26:29.294Z,54.24
2016-09-23T11:27:29.284Z,54.14
2016-09-23T11:28:29.257Z,54.21
2016-09-23T11:29:29.250Z,53.95
2016-09-23T11:30:29.232Z,54.24
2016-09-23T11:31:29.228Z,54.33
2016-09-23T11:32:29.202Z,54.24
2016-09-23T11:33:29.193Z,53.66
2016-09-23T11:34:29.165Z,53.85
2016-09-23T11:35:29.155Z,54.24
2016-09-23T11:36:29.139Z,54.24
2016-09-23T11:37:29.118Z,54.72
2016-09-23T11:38:29.105Z,53.95
2016-09-23T11:39:29.086Z,54.72
2016-09-23T11:40:28.763Z,54.53
2016-09-23T11:41:29.049Z,54.53
2016-09-23T11:42:29.035Z,54.62
2016-09-23T11:43:29.021Z,54.53
2016-09-23T11:44:29.006Z,54.33
2016-09-23T11:45:28.990Z,54.72
2016-09-23T11:46:28.978Z,54.62
2016-09-23T11:47:28.952Z,54.62
2016-09-23T11:48:28.966Z,54.43
2016-09-23T11:49:28.626Z,54.43
2016-09-23T11:50:28.903Z,54.14
2016-09-23T11:51:28.900Z,54.72
2016-09-23T11:52:28.887Z,54.14
2016-09-23T11:53:28.865Z,54.53
2016-09-23T11:54:28.542Z,54.43
2016-09-23T11:55:28.833Z,54.62
2016-09-23T11:56:28.521Z,54.53
2016-09-23T11:57:28.798Z,54.53
2016-09-23T11:58:28.485Z,54.62
2016-09-23T11:59:28.860Z,54.72
2016-09-23T12:00:28.747Z,54.43
2016-09-23T12:01:28.739Z,54.53
2016-09-23T12:02:28.717Z,54.62
2016-09-23T12:03:28.702Z,54.72
2016-09-23T12:04:28.681Z,53.66
2016-09-23T12:05:28.670Z,53.75
2016-09-23T12:06:28.663Z,53.66
2016-09-23T12:07:28.642Z,53.75
2016-09-23T12:08:28.620Z,53.66
2016-09-23T12:09:28.603Z,53.85
2016-09-23T12:10:28.584Z,53.66
2016-09-23T12:11:28.568Z,53.95
2016-09-23T12:12:28.556Z,53.75
2016-09-23T12:13:28.242Z,53.95
2016-09-23T12:14:28.525Z,54.05
2016-09-23T12:15:28.512Z,53.66
2016-09-23T12:16:28.503Z,53.85
2016-09-23T12:17:28.482Z,53.66
2016-09-23T12:18:28.455Z,53.66
2016-09-23T12:19:28.443Z,53.75
2016-09-23T12:20:28.432Z,53.66
2016-09-23T12:21:28.411Z,54.05
2016-09-23T12:22:28.396Z,53.95
2016-09-23T12:23:28.389Z,53.66
2016-09-23T12:24:28.368Z,53.66
2016-09-23T12:25:28.048Z,53.95
2016-09-23T12:26:28.335Z,53.66
2016-09-23T12:27:28.317Z,54.24
2016-09-23T12:28:28.306Z,54.82
2016-09-23T12:29:28.282Z,54.33
2016-09-23T12:30:27.970Z,54.24
2016-09-23T12:31:28.257Z,54.14
2016-09-23T12:32:27.940Z,53.75
2016-09-23T12:33:28.230Z,53.66
2016-09-23T12:34:28.205Z,54.24
2016-09-23T12:35:28.191Z,54.82
2016-09-23T12:36:27.871Z,54.33
2016-09-23T12:37:28.158Z,54.62
2016-09-23T12:38:28.143Z,54.72
2016-09-23T12:39:27.862Z,54.72
2016-09-23T12:40:28.108Z,54.62
2016-09-23T12:41:28.103Z,54.62
2016-09-23T12:42:28.085Z,54.53
2016-09-23T12:43:28.068Z,54.72
2016-09-23T12:44:28.057Z,54.53
2016-09-23T12:45:28.032Z,54.72
2016-09-23T12:46:28.017Z,54.53
2016-09-23T12:47:28.000Z,54.53
2016-09-23T12:48:27.980Z,54.53
2016-09-23T12:49:27.973Z,54.24
2016-09-23T12:50:27.656Z,53.56
2016-09-23T12:51:27.640Z,53.56
2016-09-23T12:52:27.923Z,53.75
2016-09-23T12:53:27.901Z,53.85
2016-09-23T12:54:27.893Z,53.85
2016-09-23T12:55:27.876Z,54.05